createdAt,value
2018-07-26T00:02:51.824Z,7.77
2018-07-26T00:07:55.077Z,8.50
2018-07-26T00:12:58.472Z,9.20
2018-07-26T00:18:01.861Z,10.50
2018-07-26T00:23:05.293Z,11.80
2018-07-26T00:28:09.393Z,12.33
2018-07-26T00:33:13.299Z,12.00
2018-07-26T00:38:16.854Z,13.60
2018-07-26T00:43:20.141Z,12.30
2018-07-26T00:48:23.597Z,13.30
2018-07-26T00:53:27.141Z,11.90
2018-07-26T00:58:30.857Z,14.43
2018-07-26T01:03:34.870Z,14.00
2018-07-26T01:08:38.619Z,15.70
2018-07-26T01:13:42.576Z,13.80
2018-07-26T01:18:46.365Z,10.17
2018-07-26T01:24:01.127Z,11.30
2018-07-26T01:29:07.327Z,11.70
2018-07-26T01:34:11.280Z,16.43
2018-07-26T01:39:15.291Z,16.13
2018-07-26T01:44:22.637Z,14.67
2018-07-26T01:49:26.272Z,11.23
2018-07-26T01:54:30.046Z,15.50
2018-07-26T01:59:37.830Z,16.40
2018-07-26T02:04:41.625Z,20.20
2018-07-26T02:09:45.578Z,19.87
2018-07-26T02:14:48.957Z,13.60
2018-07-26T02:19:52.622Z,12.10
2018-07-26T02:24:56.265Z,16.73
2018-07-26T02:29:59.644Z,16.90
2018-07-26T02:35:03.170Z,11.53
2018-07-26T02:40:06.720Z,9.70
2018-07-26T02:45:10.046Z,8.90
2018-07-26T02:50:13.674Z,10.17
2018-07-26T02:55:17.010Z,16.53
2018-07-26T03:00:20.497Z,8.57
2018-07-26T03:05:24.637Z,16.00
2018-07-26T03:10:28.422Z,10.47
2018-07-26T03:15:32.827Z,12.97
2018-07-26T03:20:36.289Z,14.80
2018-07-26T03:25:39.711Z,12.20
2018-07-26T03:30:42.971Z,10.53
2018-07-26T03:35:46.224Z,10.50
2018-07-26T03:40:49.521Z,10.60
2018-07-26T03:45:53.192Z,9.70
2018-07-26T03:50:56.715Z,10.73
2018-07-26T03:55:59.975Z,15.80
2018-07-26T04:01:03.605Z,12.10
2018-07-26T04:06:07.237Z,10.90
2018-07-26T04:11:10.448Z,11.73
2018-07-26T04:16:14.657Z,17.07
2018-07-26T04:21:18.173Z,12.70
2018-07-26T04:26:21.397Z,14.53
2018-07-26T04:31:24.634Z,20.20
2018-07-26T04:36:28.301Z,10.60
2018-07-26T04:41:31.550Z,12.80
2018-07-26T04:46:35.333Z,18.17
2018-07-26T04:51:38.814Z,14.43
2018-07-26T04:56:42.534Z,18.80
2018-07-26T05:01:45.754Z,12.23
2018-07-26T05:06:49.169Z,13.33
2018-07-26T05:11:52.861Z,19.97
2018-07-26T05:16:56.998Z,18.03
2018-07-26T05:22:00.779Z,12.27
2018-07-26T05:27:04.034Z,16.30
2018-07-26T05:32:07.249Z,15.73
2018-07-26T05:37:10.582Z,12.53
2018-07-26T05:42:14.109Z,13.93
2018-07-26T05:47:17.382Z,12.57
2018-07-26T05:52:21.060Z,11.30
2018-07-26T05:57:24.318Z,12.70
2018-07-26T06:02:27.623Z,12.53
2018-07-26T06:07:30.966Z,9.87
2018-07-26T06:12:34.233Z,8.70
2018-07-26T06:17:37.158Z,8.87
2018-07-26T06:22:41.207Z,8.13
2018-07-26T06:27:44.306Z,7.70
2018-07-26T06:32:47.195Z,8.07
2018-07-26T06:37:56.418Z,7.90
2018-07-26T06:43:00.168Z,7.57
2018-07-26T06:48:03.579Z,7.77
2018-07-26T06:53:08.287Z,7.17
2018-07-26T06:58:12.218Z,7.80
2018-07-26T07:03:16.084Z,7.43
2018-07-26T07:08:21.797Z,6.30
2018-07-26T07:13:25.566Z,6.43
2018-07-26T07:18:28.873Z,6.13
2018-07-26T07:23:32.137Z,6.33
2018-07-26T07:28:35.352Z,6.10
2018-07-26T07:33:38.589Z,6.50
2018-07-26T07:38:42.331Z,5.30
2018-07-26T07:43:45.606Z,5.20
2018-07-26T07:48:48.862Z,5.93
2018-07-26T07:53:52.210Z,7.57
2018-07-26T07:58:55.815Z,5.50
2018-07-26T08:03:59.095Z,6.30
2018-07-26T08:09:09.468Z,5.40
2018-07-26T08:14:13.650Z,5.80
2018-07-26T08:19:16.882Z,6.20
2018-07-26T08:24:21.965Z,5.40
2018-07-26T08:29:25.443Z,5.23
2018-07-26T08:34:29.318Z,4.80
2018-07-26T08:39:32.526Z,5.57
2018-07-26T08:44:35.783Z,4.97
2018-07-26T08:49:39.018Z,5.30
2018-07-26T08:54:42.269Z,4.00
2018-07-26T08:59:45.477Z,5.30
2018-07-26T09:04:49.181Z,4.87
2018-07-26T09:09:52.770Z,4.63
2018-07-26T09:14:55.941Z,4.60
2018-07-26T09:19:59.148Z,5.47
2018-07-26T09:25:02.527Z,4.87
2018-07-26T09:30:07.511Z,4.70
2018-07-26T09:35:11.071Z,5.27
2018-07-26T09:40:14.508Z,4.30
2018-07-26T09:45:17.761Z,4.83
2018-07-26T09:50:20.985Z,5.37
2018-07-26T09:55:24.293Z,4.80
2018-07-26T10:00:33.002Z,4.60
2018-07-26T10:05:36.480Z,4.53
2018-07-26T10:10:40.654Z,5.30
2018-07-26T10:15:43.931Z,4.63
2018-07-26T10:20:52.281Z,4.50
2018-07-26T10:25:57.001Z,4.03
2018-07-26T10:31:06.541Z,5.10
2018-07-26T10:36:09.895Z,5.10
2018-07-26T10:41:13.895Z,4.80
2018-07-26T10:46:17.109Z,4.53
2018-07-26T10:51:20.339Z,5.43
2018-07-26T10:56:23.722Z,4.30
2018-07-26T11:01:26.940Z,5.73
2018-07-26T11:06:30.451Z,4.70
2018-07-26T11:11:34.331Z,4.70
2018-07-26T11:16:38.614Z,4.60
2018-07-26T11:21:41.977Z,4.07
2018-07-26T11:26:45.205Z,5.00
2018-07-26T11:31:48.421Z,5.33
2018-07-26T11:36:51.651Z,4.03
2018-07-26T11:41:55.353Z,4.20
2018-07-26T11:46:58.568Z,4.23
2018-07-26T11:52:01.799Z,4.17
2018-07-26T11:57:05.611Z,4.20
2018-07-26T12:02:08.951Z,4.40
2018-07-26T12:07:12.202Z,4.27
2018-07-26T12:12:15.701Z,4.10
2018-07-26T12:17:18.926Z,3.47
2018-07-26T12:22:22.150Z,4.30
2018-07-26T12:27:25.357Z,4.40
2018-07-26T12:32:28.550Z,4.00
2018-07-26T12:37:31.707Z,3.97
2018-07-26T12:42:35.090Z,3.50
2018-07-26T12:47:38.631Z,3.90
2018-07-26T12:52:41.790Z,3.23
2018-07-26T12:57:45.217Z,3.53
2018-07-26T13:02:48.449Z,3.83
2018-07-26T13:07:52.058Z,3.60
2018-07-26T13:12:55.899Z,3.83
2018-07-26T13:18:00.682Z,3.37
2018-07-26T13:23:03.957Z,3.60
2018-07-26T13:28:07.201Z,3.30
2018-07-26T13:33:10.393Z,3.27
2018-07-26T13:38:13.923Z,3.50
2018-07-26T13:43:22.362Z,3.70
2018-07-26T13:48:26.708Z,3.20
2018-07-26T13:53:34.623Z,3.23
2018-07-26T13:58:38.634Z,3.30
2018-07-26T14:03:41.846Z,3.53
2018-07-26T14:08:45.256Z,3.47
2018-07-26T14:13:49.190Z,4.20
2018-07-26T14:18:52.696Z,3.80
2018-07-26T14:24:01.328Z,3.63
2018-07-26T14:29:04.706Z,4.17
2018-07-26T14:34:07.986Z,4.63
2018-07-26T14:39:12.424Z,3.77
2018-07-26T14:44:15.866Z,4.23
2018-07-26T14:49:19.178Z,3.53
2018-07-26T14:54:22.670Z,4.13
2018-07-26T14:59:36.760Z,3.70
2018-07-26T15:04:42.347Z,4.53
2018-07-26T15:09:45.784Z,4.50
2018-07-26T15:14:50.395Z,4.10
2018-07-26T15:19:53.749Z,5.17
2018-07-26T15:24:57.343Z,4.83
2018-07-26T15:30:00.954Z,4.73
2018-07-26T15:35:04.567Z,4.20
2018-07-26T15:40:08.488Z,4.13
2018-07-26T15:45:12.354Z,4.00
2018-07-26T15:50:15.636Z,4.07
2018-07-26T15:55:18.832Z,4.00
2018-07-26T16:00:22.543Z,5.20
2018-07-26T16:05:25.885Z,4.53
2018-07-26T16:10:29.148Z,4.70
2018-07-26T16:15:32.639Z,5.10
2018-07-26T16:20:35.871Z,4.43
2018-07-26T16:25:39.087Z,4.57
2018-07-26T16:30:42.679Z,3.90
2018-07-26T16:35:45.875Z,4.23
2018-07-26T16:40:49.226Z,5.33
2018-07-26T16:45:52.627Z,4.13
2018-07-26T16:50:56.111Z,4.30
2018-07-26T16:56:05.216Z,4.80
2018-07-26T17:01:09.418Z,4.50
2018-07-26T17:06:12.807Z,4.13
2018-07-26T17:11:16.190Z,4.80
2018-07-26T17:16:19.799Z,4.27
2018-07-26T17:21:23.060Z,4.90
2018-07-26T17:26:27.209Z,4.87
2018-07-26T17:31:30.473Z,4.20
2018-07-26T17:36:34.605Z,5.10
2018-07-26T17:41:39.250Z,5.17
2018-07-26T17:46:44.119Z,5.67
2018-07-26T17:51:48.093Z,5.47
2018-07-26T17:56:51.508Z,4.70
2018-07-26T18:01:54.810Z,5.50
2018-07-26T18:06:58.337Z,5.57
2018-07-26T18:12:01.701Z,5.37
2018-07-26T18:17:05.794Z,6.00
2018-07-26T18:22:09.030Z,4.60
2018-07-26T18:27:12.565Z,5.60
2018-07-26T18:32:16.080Z,5.07
2018-07-26T18:37:19.662Z,4.67
2018-07-26T18:42:22.966Z,4.73
2018-07-26T18:47:26.669Z,5.80
2018-07-26T18:52:31.533Z,4.60
2018-07-26T18:57:39.313Z,5.20
2018-07-26T19:02:48.393Z,5.07
2018-07-26T19:07:54.683Z,5.70
2018-07-26T19:12:58.554Z,6.00
2018-07-26T19:18:02.124Z,5.47
2018-07-26T19:23:06.087Z,5.93
2018-07-26T19:28:11.410Z,6.00
2018-07-26T19:33:14.747Z,6.00
2018-07-26T19:38:18.051Z,5.60
2018-07-26T19:43:21.663Z,5.60
2018-07-26T19:48:25.221Z,6.23
2018-07-26T19:53:28.510Z,6.00
2018-07-26T19:58:31.834Z,4.93
2018-07-26T20:03:35.121Z,5.80
2018-07-26T20:08:43.574Z,6.00
2018-07-26T20:13:48.654Z,5.40
2018-07-26T20:18:54.236Z,5.50
2018-07-26T20:23:57.572Z,5.90
2018-07-26T20:29:00.819Z,5.80
2018-07-26T20:34:04.125Z,6.30
2018-07-26T20:39:09.615Z,6.70
2018-07-26T20:44:12.910Z,6.83
2018-07-26T20:49:24.048Z,6.70
2018-07-26T20:54:27.984Z,7.07
2018-07-26T20:59:32.010Z,7.17
2018-07-26T21:04:35.394Z,7.10
2018-07-26T21:09:38.697Z,7.87
2018-07-26T21:14:41.929Z,6.50
2018-07-26T21:19:50.810Z,7.10
2018-07-26T21:24:54.641Z,7.87
2018-07-26T21:29:57.987Z,7.30
2018-07-26T21:35:01.967Z,7.67
2018-07-26T21:40:06.312Z,6.40
2018-07-26T21:45:09.742Z,7.10
2018-07-26T21:50:14.077Z,7.63
2018-07-26T21:55:17.812Z,7.50
2018-07-26T22:00:21.106Z,7.30
2018-07-26T22:05:24.770Z,6.87
2018-07-26T22:10:28.341Z,7.43
2018-07-26T22:15:31.557Z,7.20
2018-07-26T22:20:35.784Z,6.57
2018-07-26T22:25:46.271Z,7.30
2018-07-26T22:30:49.832Z,6.80
2018-07-26T22:35:53.578Z,7.07
2018-07-26T22:40:57.058Z,7.43
2018-07-26T22:46:00.798Z,7.60
2018-07-26T22:51:05.618Z,7.57
2018-07-26T22:56:11.074Z,7.23
2018-07-26T23:01:14.620Z,8.20
2018-07-26T23:06:18.660Z,7.30
2018-07-26T23:11:22.440Z,8.30
2018-07-26T23:16:28.113Z,8.63
2018-07-26T23:21:31.933Z,7.40
2018-07-26T23:26:35.307Z,8.33
2018-07-26T23:31:39.432Z,8.77
2018-07-26T23:36:43.284Z,7.53
2018-07-26T23:41:46.728Z,7.20
2018-07-26T23:46:50.075Z,9.07
2018-07-26T23:51:53.570Z,8.03
2018-07-26T23:56:57.741Z,7.37
